Terminal Aerodrome Forecast
Issued by NWS Omaha/Valley, NE

Home | Current Version | Previous Version | Graphics & Text | Print | Product List | Glossary On
Versions: 1 2 3 4 5 6 7 8 9 10 11 12 13 14 15 16 17 18 19 20 21 22 23 24 25 26 27 28 29 30 31 32 33 34 35 36 37
000
FTUS43 KOAX 261615 AAB
TAFOFK
TAF AMD
KOFK 261615Z 2616/2712 04011KT P6SM VCSH BKN040
     FM261900 06014G20KT P6SM SCT040 BKN120
     FM270400 06014G22KT P6SM BKN025
      TEMPO 2704/2706 3SM TSRA BKN020CB
     FM270600 07016G21KT 6SM SHRA OVC007
     FM271000 08014G21KT P6SM OVC007=

USA.gov is the U.S. government's official web portal to all federal, state and local government web resources and services.